Time;durP1;ratioP1;P1;durP2;ratioP2;P2;SDS_P1;SDS_P2;PMS_P1;PMS_P2;Temp;Humidity;BMP_temperature;BMP_pressure;BME280_temperature;BME280_humidity;BME280_pressure;Samples;Min_cycle;Max_cycle;Signal;HPM_P1;HPM_P2
2022/08/01 00:01:15;;;;;;;1.10;0.90;;;;;;;16.32;73.37;98534.63;107885;1276;95669;-65
2022/08/01 00:03:43;;;;;;;2.20;1.30;;;;;;;16.33;73.38;98533.60;107909;1274;107887;-64
2022/08/01 00:06:11;;;;;;;1.50;1.40;;;;;;;16.34;73.36;98539.36;107879;1276;95718;-65
2022/08/01 00:08:39;;;;;;;1.50;1.20;;;;;;;16.31;73.05;98541.08;107936;1274;95677;-65
2022/08/01 00:11:08;;;;;;;1.20;1.10;;;;;;;16.26;73.29;98538.27;107906;1274;111530;-65
2022/08/01 00:13:36;;;;;;;3.00;1.20;;;;;;;16.23;73.48;98543.42;107757;1276;95707;-64
2022/08/01 00:16:04;;;;;;;1.20;1.10;;;;;;;16.21;73.34;98542.48;107946;1274;106830;-65
2022/08/01 00:18:32;;;;;;;2.30;1.50;;;;;;;16.21;73.51;98533.59;107941;1274;95693;-65
2022/08/01 00:21:00;;;;;;;1.50;1.30;;;;;;;16.19;73.59;98536.13;107948;1274;95797;-65
2022/08/01 00:23:28;;;;;;;3.30;1.50;;;;;;;16.19;73.58;98538.45;107942;1274;111534;-65
2022/08/01 00:25:55;;;;;;;1.30;1.10;;;;;;;16.19;73.59;98547.51;107930;1276;95655;-65
2022/08/01 00:28:23;;;;;;;1.20;1.10;;;;;;;16.16;73.62;98548.95;107914;1274;107647;-66
2022/08/01 00:30:51;;;;;;;3.00;1.60;;;;;;;16.12;73.68;98543.11;107916;1275;95685;-65
2022/08/01 00:33:19;;;;;;;2.30;1.30;;;;;;;16.14;73.71;98545.62;107956;1275;95631;-65
2022/08/01 00:35:47;;;;;;;1.80;1.20;;;;;;;16.13;73.51;98544.92;107945;1274;111526;-65
2022/08/01 00:38:14;;;;;;;2.80;1.20;;;;;;;16.11;73.76;98543.04;107940;1274;95627;-65
2022/08/01 00:40:42;;;;;;;2.40;1.30;;;;;;;16.12;73.87;98543.63;107872;1275;108018;-65
2022/08/01 00:43:10;;;;;;;1.80;1.40;;;;;;;16.12;73.74;98543.13;107899;1275;95698;-66
2022/08/01 00:45:37;;;;;;;4.00;1.50;;;;;;;16.14;73.89;98540.02;107914;1275;95635;-65
2022/08/01 00:48:05;;;;;;;2.80;2.00;;;;;;;16.15;73.83;98538.86;107960;1274;111547;-65
2022/08/01 00:50:33;;;;;;;5.10;1.30;;;;;;;16.11;73.83;98539.75;107967;1274;95821;-65
2022/08/01 00:53:02;;;;;;;1.40;1.30;;;;;;;16.11;73.77;98539.11;107946;1275;107243;-64
2022/08/01 00:55:31;;;;;;;1.50;1.20;;;;;;;16.12;73.79;98544.14;107876;1276;95604;-65
2022/08/01 00:57:59;;;;;;;9.10;2.10;;;;;;;16.10;73.80;98540.58;107891;1276;95575;-65
2022/08/01 01:00:35;;;;;;;2.50;1.40;;;;;;;16.08;73.91;98538.66;107874;1276;111493;-66
2022/08/01 01:03:22;;;;;;;2.20;1.10;;;;;;;16.05;73.95;98535.06;107969;1276;95683;-66
2022/08/01 01:06:23;;;;;;;2.00;1.30;;;;;;;16.05;73.99;98540.09;107864;1275;107732;-67
2022/08/01 01:09:00;;;;;;;3.00;1.60;;;;;;;16.02;74.02;98529.44;107962;1274;95755;-65
2022/08/01 01:11:40;;;;;;;2.30;1.20;;;;;;;16.02;73.85;98534.10;107852;1276;95620;-65
2022/08/01 01:14:16;;;;;;;1.10;1.10;;;;;;;15.99;74.01;98531.89;107902;1276;110221;-66
2022/08/01 01:16:45;;;;;;;1.70;1.20;;;;;;;15.99;74.07;98531.00;107981;1274;95664;-66
2022/08/01 01:19:20;;;;;;;2.60;1.20;;;;;;;16.00;74.08;98530.40;107966;1274;107823;-66
2022/08/01 01:22:18;;;;;;;2.90;1.10;;;;;;;16.03;74.32;98529.17;107923;1275;95676;-64
2022/08/01 01:25:13;;;;;;;2.70;1.00;;;;;;;16.03;74.25;98529.92;108006;1274;95609;-65
2022/08/01 01:28:01;;;;;;;3.70;1.10;;;;;;;16.03;74.16;98536.33;107970;1274;111434;-64
2022/08/01 01:30:32;;;;;;;2.10;0.90;;;;;;;16.01;74.31;98528.19;107982;1274;95819;-64
2022/08/01 01:33:05;;;;;;;0.80;0.70;;;;;;;16.02;74.32;98529.81;107925;1274;107927;-64
2022/08/01 01:35:38;;;;;;;3.00;1.00;;;;;;;16.02;74.27;98533.91;107882;1274;95656;-65
2022/08/01 01:38:17;;;;;;;0.80;0.80;;;;;;;16.01;74.24;98531.71;107948;1274;95786;-64
2022/08/01 01:40:47;;;;;;;1.80;1.00;;;;;;;16.01;74.29;98531.71;107879;1275;111590;-64
2022/08/01 01:43:16;;;;;;;0.60;0.60;;;;;;;16.00;74.37;98534.13;107963;1274;95718;-64
2022/08/01 01:45:46;;;;;;;2.90;0.90;;;;;;;15.99;74.35;98537.44;107946;1274;108027;-65
2022/08/01 01:48:19;;;;;;;1.40;0.90;;;;;;;15.97;74.30;98533.54;107975;1274;96538;-65
2022/08/01 01:50:48;;;;;;;0.70;0.70;;;;;;;16.00;74.40;98540.63;107950;1274;95707;-64
2022/08/01 01:53:20;;;;;;;1.50;0.70;;;;;;;15.98;74.46;98544.01;107736;1275;111233;-65
2022/08/01 01:55:52;;;;;;;2.30;1.00;;;;;;;15.98;74.39;98545.59;107928;1274;95728;-65
2022/08/01 01:58:22;;;;;;;0.80;0.80;;;;;;;15.97;74.46;98540.20;107952;1274;107882;-63
2022/08/01 02:00:52;;;;;;;1.00;0.90;;;;;;;15.97;74.55;98539.67;107915;1274;95688;-65
2022/08/01 02:03:21;;;;;;;0.60;0.60;;;;;;;15.97;74.55;98544.98;107972;1274;95658;-64
2022/08/01 02:05:53;;;;;;;1.40;0.50;;;;;;;15.96;74.44;98543.66;107912;1274;111601;-66
2022/08/01 02:08:23;;;;;;;0.70;0.70;;;;;;;15.94;74.42;98546.04;107964;1274;95758;-65
2022/08/01 02:13:42;;;;;;;1.10;0.50;;;;;;;15.94;74.60;98549.04;107953;1274;95772;-66
2022/08/01 02:16:12;;;;;;;1.60;1.20;;;;;;;15.92;74.64;98550.44;107902;1276;95721;-66
2022/08/01 02:18:41;;;;;;;7.40;2.20;;;;;;;15.92;74.63;98549.48;107897;1276;111421;-65
2022/08/01 02:21:13;;;;;;;1.20;1.10;;;;;;;15.91;74.54;98545.45;107920;1275;95684;-64
2022/08/01 02:23:42;;;;;;;2.00;1.30;;;;;;;15.92;74.64;98548.77;107828;1275;106620;-65
2022/08/01 02:26:15;;;;;;;2.20;1.80;;;;;;;15.92;74.66;98549.63;107882;1276;95789;-65
2022/08/01 02:28:49;;;;;;;4.60;1.70;;;;;;;15.93;74.70;98553.66;107998;1274;95700;-64
2022/08/01 02:31:20;;;;;;;3.90;1.80;;;;;;;15.95;74.91;98555.65;107969;1274;112207;-65
2022/08/01 02:34:05;;;;;;;3.90;2.60;;;;;;;15.97;74.89;98552.01;107967;1274;95692;-65
2022/08/01 02:36:35;;;;;;;4.00;2.60;;;;;;;15.99;74.77;98553.63;107967;1274;107767;-65
2022/08/01 02:39:09;;;;;;;5.40;3.10;;;;;;;15.98;74.56;98553.02;107808;1277;95656;-65
2022/08/01 02:41:42;;;;;;;5.90;3.20;;;;;;;15.95;74.92;98552.40;107984;1274;95687;-64
2022/08/01 02:44:13;;;;;;;;;;;;;;;15.94;74.84;98550.48;107998;1274;111509;-65
2022/08/01 02:46:49;;;;;;;7.10;3.30;;;;;;;15.89;74.95;98547.77;107997;1274;95657;-65
2022/08/01 02:49:20;;;;;;;8.30;3.50;;;;;;;15.90;74.88;98545.16;107965;1274;106943;-64
2022/08/01 02:51:50;;;;;;;6.90;3.70;;;;;;;15.94;74.85;98554.30;107978;1274;95654;-65
2022/08/01 02:54:21;;;;;;;6.60;3.70;;;;;;;15.93;74.85;98555.23;107907;1276;95670;-65
2022/08/01 02:56:51;;;;;;;7.30;4.20;;;;;;;15.93;74.91;98558.59;107975;1274;111547;-65
2022/08/01 02:59:24;;;;;;;8.30;4.50;;;;;;;15.95;75.05;98562.72;107855;1276;95661;-65
2022/08/01 03:01:55;;;;;;;10.70;4.70;;;;;;;15.96;75.13;98566.41;107852;1276;107928;-65
2022/08/01 03:04:24;;;;;;;11.80;4.70;;;;;;;15.95;74.97;98567.73;107942;1274;95626;-64
2022/08/01 03:06:54;;;;;;;8.20;4.30;;;;;;;15.94;75.24;98567.70;108009;1274;95760;-64
2022/08/01 03:09:23;;;;;;;7.20;4.40;;;;;;;15.97;75.22;98570.21;107938;1274;111525;-64
2022/08/01 03:11:53;;;;;;;6.90;3.40;;;;;;;16.00;75.26;98568.30;107877;1276;95680;-64
2022/08/01 03:14:25;;;;;;;5.10;2.90;;;;;;;16.00;75.15;98568.82;107945;1274;107972;-65
2022/08/01 03:16:54;;;;;;;4.60;2.60;;;;;;;16.01;75.07;98573.96;107982;1274;95658;-65
2022/08/01 03:19:25;;;;;;;3.80;2.30;;;;;;;15.96;75.17;98568.40;107980;1274;95633;-65
2022/08/01 03:21:55;;;;;;;3.70;2.30;;;;;;;15.94;75.21;98569.69;107965;1274;111478;-65
2022/08/01 03:24:24;;;;;;;2.80;1.90;;;;;;;15.96;75.22;98568.34;107829;1277;95708;-64
2022/08/01 03:26:54;;;;;;;2.00;1.70;;;;;;;15.96;75.12;98576.11;107858;1277;108116;-65
2022/08/01 03:29:25;;;;;;;4.20;2.00;;;;;;;15.96;75.32;98577.83;107902;1274;95615;-65
2022/08/01 03:31:55;;;;;;;2.90;1.40;;;;;;;15.97;75.19;98576.15;107958;1274;95560;-65
2022/08/01 03:34:23;;;;;;;1.40;1.30;;;;;;;15.98;75.35;98575.66;107993;1274;111543;-65
2022/08/01 03:37:15;;;;;;;2.40;1.90;;;;;;;15.99;75.11;98578.64;107989;1274;95728;-65
2022/08/01 03:39:48;;;;;;;1.30;1.20;;;;;;;15.97;75.23;98575.98;107989;1274;107781;-66
2022/08/01 03:42:20;;;;;;;2.30;1.30;;;;;;;15.94;75.30;98577.08;107964;1274;95660;-65
2022/08/01 03:44:54;;;;;;;4.10;1.20;;;;;;;15.92;75.11;98579.27;107921;1274;95688;-66
2022/08/01 03:47:29;;;;;;;1.20;0.90;;;;;;;15.91;75.20;98576.92;107828;1276;111483;-65
2022/08/01 03:49:58;;;;;;;1.50;1.20;;;;;;;15.92;75.46;98581.39;107847;1274;223769;-66
2022/08/01 03:52:28;;;;;;;3.40;1.00;;;;;;;15.92;75.44;98578.97;108008;1274;107829;-66
2022/08/01 03:54:59;;;;;;;0.80;0.80;;;;;;;15.93;75.48;98580.26;107974;1274;95976;-64
2022/08/01 03:57:29;;;;;;;1.50;0.80;;;;;;;15.92;75.28;98584.66;107932;1274;95710;-64
2022/08/01 04:00:09;;;;;;;1.80;0.90;;;;;;;15.92;75.62;98585.95;107889;1277;111282;-65
2022/08/01 04:02:37;;;;;;;0.90;0.80;;;;;;;15.96;75.51;98589.09;107974;1274;96034;-65
2022/08/01 04:05:05;;;;;;;4.10;1.30;;;;;;;15.99;75.35;98590.77;107853;1277;107853;-66
2022/08/01 04:07:38;;;;;;;4.20;1.90;;;;;;;15.97;75.42;98592.36;107938;1274;96039;-66
2022/08/01 04:10:07;;;;;;;;;;;;;;;15.99;75.52;98594.48;107896;1276;95724;-66
2022/08/01 04:12:34;;;;;;;2.60;1.40;;;;;;;15.97;75.55;98598.95;107937;1274;111502;-66
2022/08/01 04:15:03;;;;;;;2.00;1.70;;;;;;;16.01;75.62;98598.81;107827;1275;95675;-65
2022/08/01 04:17:32;;;;;;;2.10;1.70;;;;;;;16.04;75.67;98601.15;107845;1275;105670;-68
2022/08/01 04:19:59;;;;;;;1.60;1.50;;;;;;;16.03;75.46;98597.01;107794;1276;95780;-68
2022/08/01 04:22:28;;;;;;;1.60;1.50;;;;;;;16.03;75.40;98600.39;107843;1274;95765;-69
2022/08/01 04:24:58;;;;;;;2.30;1.60;;;;;;;16.01;75.42;98602.16;107778;1276;110439;-68
2022/08/01 04:27:32;;;;;;;2.10;1.70;;;;;;;16.02;75.52;98602.75;107949;1274;95880;-68
2022/08/01 04:30:25;;;;;;;3.90;1.70;;;;;;;16.03;75.48;98605.16;107833;1276;107875;-66
2022/08/01 04:32:56;;;;;;;3.80;2.40;;;;;;;16.01;75.57;98603.44;107954;1274;95757;-65
2022/08/01 04:35:26;;;;;;;3.90;2.10;;;;;;;16.00;75.47;98606.21;107907;1276;95576;-65
2022/08/01 04:38:18;;;;;;;6.60;3.80;;;;;;;15.99;75.53;98606.71;107945;1274;111450;-66
2022/08/01 04:40:46;;;;;;;9.60;4.90;;;;;;;15.99;75.44;98607.04;107872;1275;95818;-66
2022/08/01 04:43:14;;;;;;;11.00;4.80;;;;;;;15.99;75.57;98605.13;107951;1274;107803;-69
2022/08/01 04:45:43;;;;;;;10.10;5.10;;;;;;;15.99;75.51;98602.56;107848;1274;96442;-67
2022/08/01 04:48:15;;;;;;;12.00;5.50;;;;;;;15.98;75.55;98600.14;107968;1274;95701;-67
2022/08/01 04:50:43;;;;;;;12.90;5.30;;;;;;;15.98;75.43;98600.13;107793;1276;111618;-67
2022/08/01 04:53:16;;;;;;;10.80;5.30;;;;;;;15.97;75.57;98607.20;107942;1274;96535;-67
2022/08/01 04:55:46;;;;;;;10.40;5.40;;;;;;;15.98;75.48;98608.04;107837;1276;106812;-68
2022/08/01 04:58:15;;;;;;;12.50;5.20;;;;;;;15.97;75.62;98606.70;107893;1274;95974;-66
2022/08/01 05:00:46;;;;;;;9.70;5.30;;;;;;;15.99;75.56;98613.27;107945;1274;95666;-67
2022/08/01 05:03:15;;;;;;;16.20;5.90;;;;;;;16.01;75.61;98615.64;107915;1274;111579;-66
2022/08/01 05:05:43;;;;;;;14.30;6.90;;;;;;;16.02;75.60;98616.42;107954;1274;95907;-67
2022/08/01 05:08:11;;;;;;;15.70;6.90;;;;;;;16.02;75.60;98615.81;107829;1275;107864;-68
2022/08/01 05:10:39;;;;;;;14.90;6.70;;;;;;;16.04;75.62;98608.69;107923;1274;95699;-68
2022/08/01 05:13:06;;;;;;;17.50;7.10;;;;;;;16.05;75.73;98603.03;107667;1275;96043;-66
2022/08/01 05:15:36;;;;;;;20.50;8.70;;;;;;;16.10;75.70;98612.17;107853;1274;111416;-66
2022/08/01 05:18:04;;;;;;;20.70;8.50;;;;;;;16.11;75.46;98610.88;107846;1274;95692;-67
2022/08/01 05:20:36;;;;;;;19.60;8.80;;;;;;;16.08;75.73;98611.33;107771;1274;107855;-66
2022/08/01 05:23:05;;;;;;;23.90;9.70;;;;;;;16.05;75.68;98612.69;107821;1274;96056;-70
2022/08/01 05:25:38;;;;;;;18.30;9.30;;;;;;;16.00;75.68;98609.10;107931;1274;95738;-68
2022/08/01 05:28:24;;;;;;;20.90;9.20;;;;;;;16.02;75.70;98619.02;107831;1274;111549;-68
2022/08/01 05:30:54;;;;;;;20.50;9.70;;;;;;;16.05;75.80;98620.56;107890;1274;96265;-69
2022/08/01 05:33:23;;;;;;;20.60;10.30;;;;;;;16.06;75.73;98623.83;107849;1274;107899;-67
2022/08/01 05:35:51;;;;;;;20.90;11.10;;;;;;;16.06;75.75;98619.92;107931;1274;96230;-67
2022/08/01 05:38:18;;;;;;;18.90;10.50;;;;;;;16.10;75.97;98621.63;107843;1274;95785;-66
2022/08/01 05:40:46;;;;;;;21.80;11.60;;;;;;;16.12;75.93;98620.94;107866;1274;113375;-66
2022/08/01 05:43:14;;;;;;;23.70;10.70;;;;;;;16.15;75.96;98621.02;107930;1274;95736;-66
2022/08/01 05:45:42;;;;;;;22.10;11.70;;;;;;;16.16;75.91;98624.79;107941;1274;108119;-68
2022/08/01 05:48:10;;;;;;;25.00;11.70;;;;;;;16.20;75.95;98626.91;107888;1274;95753;-65
2022/08/01 05:50:37;;;;;;;24.80;11.70;;;;;;;16.20;75.96;98623.68;107835;1275;95894;-65
2022/08/01 05:53:05;;;;;;;20.40;10.90;;;;;;;16.24;75.94;98629.54;107821;1276;111523;-65
2022/08/01 05:55:34;;;;;;;21.60;10.10;;;;;;;16.26;75.88;98633.20;107823;1275;96109;-64
2022/08/01 05:58:03;;;;;;;22.70;9.60;;;;;;;16.27;75.95;98634.48;107736;1274;109572;-66
2022/08/01 06:00:32;;;;;;;18.50;8.50;;;;;;;16.28;75.87;98633.24;107905;1273;95671;-66
2022/08/01 06:03:00;;;;;;;20.60;9.50;;;;;;;16.27;75.95;98633.52;107903;1274;95910;-66
2022/08/01 06:05:29;;;;;;;19.00;9.20;;;;;;;16.29;75.84;98641.38;107841;1274;111337;-66
2022/08/01 06:07:57;;;;;;;19.20;10.10;;;;;;;16.27;75.75;98644.41;107862;1274;95717;-67
2022/08/01 06:10:26;;;;;;;22.70;10.30;;;;;;;16.23;75.69;98644.15;107756;1276;107724;-68
2022/08/01 06:12:54;;;;;;;20.90;10.70;;;;;;;16.17;75.88;98647.20;107781;1276;95757;-67
2022/08/01 06:15:22;;;;;;;18.90;9.20;;;;;;;16.14;75.84;98648.42;107772;1276;96300;-67
2022/08/01 06:17:50;;;;;;;17.40;8.60;;;;;;;16.12;75.86;98650.95;107723;1274;111510;-66
2022/08/01 06:20:17;;;;;;;22.80;12.20;;;;;;;16.09;75.89;98651.14;107803;1276;96092;-66
2022/08/01 06:22:45;;;;;;;30.40;12.20;;;;;;;16.06;75.81;98655.83;107890;1274;107961;-67
2022/08/01 06:25:19;;;;;;;20.50;11.00;;;;;;;16.07;76.02;98657.23;107767;1276;95806;-67
2022/08/01 06:27:49;;;;;;;22.60;11.50;;;;;;;16.08;75.94;98659.96;107821;1275;95827;-68
2022/08/01 06:30:17;;;;;;;22.80;11.70;;;;;;;16.08;76.00;98659.96;107881;1274;111482;-66
2022/08/01 06:32:45;;;;;;;22.00;11.20;;;;;;;16.06;75.93;98661.88;107889;1274;97049;-65
2022/08/01 06:35:14;;;;;;;22.20;12.10;;;;;;;16.05;75.80;98656.68;107923;1274;107812;-68
2022/08/01 06:37:42;;;;;;;22.30;11.80;;;;;;;16.03;75.93;98658.34;107873;1274;95845;-67
2022/08/01 06:40:11;;;;;;;21.50;11.50;;;;;;;16.01;75.98;98659.23;107873;1274;95899;-67
2022/08/01 06:42:45;;;;;;;26.50;13.50;;;;;;;16.03;76.09;98662.29;107878;1274;111620;-68
2022/08/01 06:45:14;;;;;;;25.70;13.80;;;;;;;16.04;76.11;98659.85;107840;1275;97086;-67
2022/08/01 06:47:45;;;;;;;24.80;14.90;;;;;;;16.03;75.88;98663.54;107725;1276;109365;-69
2022/08/01 06:50:17;;;;;;;28.90;16.80;;;;;;;16.01;76.06;98665.88;107746;1276;96122;-67
2022/08/01 06:52:45;;;;;;;25.90;14.80;;;;;;;16.02;76.18;98669.98;107753;1274;95762;-69
2022/08/01 06:55:14;;;;;;;31.70;16.90;;;;;;;16.03;75.90;98671.21;107897;1274;111222;-69
2022/08/01 06:57:46;;;;;;;31.30;17.10;;;;;;;16.01;76.14;98671.02;107920;1274;95763;-64
2022/08/01 07:00:18;;;;;;;29.20;17.00;;;;;;;16.04;76.15;98676.14;107776;1276;107841;-67
2022/08/01 07:02:46;;;;;;;26.40;15.50;;;;;;;16.06;76.16;98674.98;107750;1274;95733;-66
2022/08/01 07:05:14;;;;;;;29.50;16.70;;;;;;;16.07;75.95;98679.05;107884;1274;96515;-66
2022/08/01 07:07:42;;;;;;;27.90;16.80;;;;;;;16.06;76.00;98680.33;107915;1274;111484;-66
2022/08/01 07:10:10;;;;;;;31.20;16.60;;;;;;;16.04;76.10;98676.39;107848;1275;95731;-67
2022/08/01 07:12:39;;;;;;;26.60;16.20;;;;;;;16.08;76.19;98685.88;107818;1274;107993;-67
2022/08/01 07:15:09;;;;;;;28.70;16.90;;;;;;;16.12;76.22;98681.77;107918;1274;96204;-68
2022/08/01 07:17:39;;;;;;;23.90;14.60;;;;;;;16.16;76.15;98685.59;107874;1274;95722;-67
2022/08/01 07:20:09;;;;;;;27.30;16.20;;;;;;;16.21;76.22;98688.48;107794;1274;111431;-68
2022/08/01 07:22:37;;;;;;;26.80;15.30;;;;;;;16.27;76.34;98690.79;107868;1274;96154;-67
2022/08/01 07:25:05;;;;;;;25.90;14.60;;;;;;;16.29;76.22;98697.66;107879;1274;107721;-68
2022/08/01 07:27:33;;;;;;;26.20;15.10;;;;;;;16.33;76.30;98697.10;107865;1274;95652;-67
2022/08/01 07:30:03;;;;;;;26.40;14.50;;;;;;;16.38;76.10;98701.80;107908;1274;95736;-67
2022/08/01 07:32:30;;;;;;;23.30;13.80;;;;;;;16.41;76.15;98700.48;107873;1275;111941;-66
2022/08/01 07:34:58;;;;;;;23.20;14.40;;;;;;;16.44;76.16;98706.04;107914;1274;95685;-66
2022/08/01 07:37:26;;;;;;;23.30;14.10;;;;;;;16.46;76.28;98703.14;107867;1275;107646;-66
2022/08/01 07:40:15;;;;;;;24.50;13.00;;;;;;;16.51;76.39;98708.02;107896;1274;95688;-66
2022/08/01 07:42:44;;;;;;;22.70;14.10;;;;;;;16.52;76.20;98706.30;107914;1274;95705;-66
2022/08/01 07:45:13;;;;;;;26.70;14.10;;;;;;;16.55;76.26;98707.04;107876;1276;111576;-67
2022/08/01 07:47:42;;;;;;;22.90;13.50;;;;;;;16.56;76.14;98708.58;107937;1273;95682;-66
2022/08/01 07:50:10;;;;;;;22.90;12.90;;;;;;;16.59;76.31;98710.17;107908;1274;107864;-67
2022/08/01 07:52:38;;;;;;;21.60;13.00;;;;;;;16.63;76.41;98708.02;107902;1274;95734;-66
2022/08/01 07:55:06;;;;;;;23.10;14.00;;;;;;;16.68;76.35;98707.00;107889;1275;96209;-66
2022/08/01 07:57:35;;;;;;;23.60;13.60;;;;;;;16.78;76.32;98709.02;107879;1275;111380;-66
2022/08/01 08:00:06;;;;;;;21.70;12.80;;;;;;;16.82;76.27;98706.01;107931;1274;95802;-66
2022/08/01 08:02:33;;;;;;;20.10;12.30;;;;;;;16.92;76.20;98704.67;107892;1274;107695;-67
2022/08/01 08:05:03;;;;;;;21.10;12.00;;;;;;;17.03;76.15;98710.13;107840;1276;95733;-65
2022/08/01 08:07:32;;;;;;;20.80;12.00;;;;;;;17.07;76.14;98708.48;107873;1275;95811;-67
2022/08/01 08:09:59;;;;;;;20.90;10.60;;;;;;;17.17;76.29;98723.70;107925;1274;111291;-66
2022/08/01 08:12:27;;;;;;;20.00;11.10;;;;;;;17.23;76.13;98723.27;107882;1275;96578;-67
2022/08/01 08:14:58;;;;;;;18.80;10.90;;;;;;;17.29;76.26;98728.24;107846;1276;107809;-65
2022/08/01 08:17:27;;;;;;;17.70;8.90;;;;;;;17.36;76.10;98732.46;107854;1272;95705;-66
2022/08/01 08:19:54;;;;;;;17.20;9.20;;;;;;;17.43;76.15;98728.56;107738;1274;95964;-65
2022/08/01 08:22:22;;;;;;;17.50;9.90;;;;;;;17.47;76.18;98734.41;107905;1274;111932;-67
2022/08/01 08:24:51;;;;;;;17.00;8.80;;;;;;;17.55;76.24;98736.23;107909;1274;96940;-66
2022/08/01 08:27:18;;;;;;;18.30;8.50;;;;;;;17.65;76.03;98735.28;107797;1276;107960;-66
2022/08/01 08:29:46;;;;;;;14.30;7.70;;;;;;;17.73;76.24;98737.52;107838;1274;96231;-66
2022/08/01 08:32:14;;;;;;;15.00;8.30;;;;;;;17.87;76.08;98731.70;107881;1274;95666;-67
2022/08/01 08:34:42;;;;;;;14.50;7.40;;;;;;;18.15;76.05;98731.30;107914;1274;111534;-67
2022/08/01 08:37:10;;;;;;;13.40;7.00;;;;;;;18.52;75.66;98728.98;107819;1276;96732;-67
2022/08/01 08:39:38;;;;;;;14.80;7.30;;;;;;;18.84;75.67;98734.39;107846;1274;107489;-67
2022/08/01 08:42:10;;;;;;;15.70;9.10;;;;;;;19.03;75.63;98731.63;107875;1274;96173;-66
2022/08/01 08:44:41;;;;;;;16.40;9.00;;;;;;;19.11;75.68;98730.92;107792;1276;95775;-66
2022/08/01 08:47:13;;;;;;;17.70;10.50;;;;;;;19.17;75.85;98731.11;107876;1274;111407;-67
2022/08/01 08:49:48;;;;;;;17.40;9.60;;;;;;;19.37;75.59;98732.64;107894;1274;96042;-68
2022/08/01 08:52:19;;;;;;;18.00;10.50;;;;;;;19.59;75.40;98731.20;107887;1274;107840;-69
2022/08/01 08:54:49;;;;;;;18.00;9.80;;;;;;;19.80;75.53;98735.07;107781;1275;96605;-72
2022/08/01 08:57:19;;;;;;;20.20;9.40;;;;;;;20.07;75.34;98738.54;107841;1275;95668;-70
2022/08/01 08:59:48;;;;;;;16.00;8.20;;;;;;;20.31;75.48;98740.60;107777;1274;111375;-71
2022/08/01 09:02:15;;;;;;;15.10;8.70;;;;;;;20.47;75.21;98739.23;107918;1274;95996;-68
2022/08/01 09:04:44;;;;;;;17.50;8.30;;;;;;;21.02;74.85;98742.98;107828;1275;108996;-68
2022/08/01 09:07:13;;;;;;;15.00;7.50;;;;;;;21.46;74.97;98742.56;107913;1274;95836;-69
2022/08/01 09:09:41;;;;;;;16.10;7.40;;;;;;;21.74;74.86;98745.84;107882;1274;96056;-68
2022/08/01 09:12:10;;;;;;;14.40;6.80;;;;;;;21.89;74.48;98749.55;107866;1274;110273;-70
2022/08/01 09:14:45;;;;;;;13.80;6.80;;;;;;;21.86;74.29;98742.95;107909;1274;95922;-73
2022/08/01 09:17:13;;;;;;;10.70;6.10;;;;;;;22.00;74.60;98743.80;107935;1274;106707;-70
2022/08/01 09:19:47;;;;;;;13.30;6.00;;;;;;;22.10;74.34;98739.17;107906;1274;95692;-71
2022/08/01 09:22:22;;;;;;;13.20;7.00;;;;;;;22.24;74.31;98749.09;107812;1274;95797;-69
2022/08/01 09:25:00;;;;;;;11.70;6.60;;;;;;;22.23;74.28;98754.70;107934;1274;111398;-67
2022/08/01 09:27:28;;;;;;;17.40;7.10;;;;;;;22.10;73.89;98747.55;107934;1274;96190;-69
2022/08/01 09:30:09;;;;;;;11.60;6.30;;;;;;;22.21;73.71;98748.02;107783;1276;108369;-69
2022/08/01 09:32:57;;;;;;;9.90;5.20;;;;;;;22.39;73.62;98752.27;107893;1274;95959;-67
2022/08/01 09:35:35;;;;;;;8.40;4.50;;;;;;;22.60;73.16;98754.38;107813;1274;95669;-67
2022/08/01 09:38:22;;;;;;;12.40;5.20;;;;;;;22.72;72.89;98746.27;107775;1274;111172;-68
2022/08/01 09:40:54;;;;;;;7.30;4.40;;;;;;;22.82;72.73;98746.66;107855;1276;95885;-67
2022/08/01 09:43:28;;;;;;;8.50;4.50;;;;;;;22.93;72.70;98742.76;107903;1274;107897;-68
2022/08/01 09:45:59;;;;;;;11.40;5.90;;;;;;;23.07;72.76;98746.30;107908;1274;95890;-69
2022/08/01 09:48:27;;;;;;;9.60;5.50;;;;;;;23.29;72.87;98747.81;107800;1276;96243;-69
2022/08/01 09:50:58;;;;;;;9.00;4.90;;;;;;;23.32;72.58;98744.94;107893;1275;111539;-68
2022/08/01 09:54:01;;;;;;;9.10;4.40;;;;;;;23.65;72.19;98743.16;107914;1274;96140;-69
2022/08/01 09:56:38;;;;;;;4.50;3.40;;;;;;;24.56;71.76;98739.14;107837;1275;108088;-68
2022/08/01 09:59:06;;;;;;;6.50;3.60;;;;;;;25.32;71.53;98738.17;107689;1274;96295;-67
2022/08/01 10:01:46;;;;;;;5.70;4.00;;;;;;;25.83;71.84;98737.11;107883;1276;95624;-67
2022/08/01 10:04:16;;;;;;;6.90;3.90;;;;;;;26.10;71.06;98736.85;107834;1274;112078;-70
2022/08/01 10:06:52;;;;;;;11.10;4.50;;;;;;;26.24;71.48;98736.44;107914;1274;96160;-67
2022/08/01 10:09:30;;;;;;;10.00;4.50;;;;;;;26.34;71.25;98734.55;107766;1275;107678;-68
2022/08/01 10:12:09;;;;;;;7.40;3.60;;;;;;;26.41;70.98;98737.30;107863;1276;95907;-69
2022/08/01 10:14:44;;;;;;;6.40;4.30;;;;;;;26.24;70.42;98736.10;107932;1274;95741;-67
2022/08/01 10:17:19;;;;;;;6.10;3.70;;;;;;;26.15;70.56;98738.10;107868;1274;111520;-67
2022/08/01 10:19:54;;;;;;;7.40;3.80;;;;;;;25.92;70.27;98732.08;107941;1274;96149;-72
2022/08/01 10:22:27;;;;;;;6.70;4.30;;;;;;;25.79;69.82;98734.97;107854;1276;107754;-68
2022/08/01 10:24:57;;;;;;;5.90;3.30;;;;;;;25.64;69.78;98737.06;107906;1272;96149;-69
2022/08/01 10:27:25;;;;;;;10.60;3.70;;;;;;;25.43;69.71;98735.48;107900;1275;95697;-68
2022/08/01 10:30:09;;;;;;;6.20;3.40;;;;;;;25.22;68.99;98736.77;107728;1276;111626;-68
2022/08/01 10:32:49;;;;;;;8.00;3.70;;;;;;;25.20;69.13;98738.38;107937;1274;95761;-70
2022/08/01 10:35:19;;;;;;;7.60;3.90;;;;;;;25.23;68.94;98736.77;107780;1274;107812;-68
2022/08/01 10:38:07;;;;;;;6.80;3.90;;;;;;;25.19;68.66;98739.59;107878;1274;96101;-68
2022/08/01 10:40:41;;;;;;;10.50;4.60;;;;;;;24.99;68.10;98734.69;107938;1274;96659;-68
2022/08/01 10:43:10;;;;;;;7.00;4.40;;;;;;;24.90;67.91;98734.48;107900;1275;111345;-68
2022/08/01 10:45:39;;;;;;;9.50;5.00;;;;;;;24.70;67.75;98739.79;107849;1272;96134;-70
2022/08/01 10:48:27;;;;;;;12.80;5.00;;;;;;;24.58;67.54;98737.41;107890;1274;107830;-68
2022/08/01 10:51:00;;;;;;;10.10;5.10;;;;;;;24.42;67.18;98738.26;107896;1274;96002;-69
2022/08/01 10:53:28;;;;;;;10.90;5.30;;;;;;;24.27;66.99;98745.55;107900;1274;95729;-69
2022/08/01 10:56:10;;;;;;;11.80;5.50;;;;;;;24.18;66.90;98745.23;107918;1274;110993;-67
2022/08/01 10:58:42;;;;;;;10.40;5.50;;;;;;;24.17;66.66;98747.30;107915;1274;96113;-67
2022/08/01 11:01:26;;;;;;;9.90;5.30;;;;;;;24.09;66.35;98742.83;107811;1275;109008;-69
2022/08/01 11:04:02;;;;;;;10.30;5.30;;;;;;;24.11;66.25;98746.95;107902;1275;96696;-68
2022/08/01 11:06:33;;;;;;;10.30;5.50;;;;;;;24.13;66.05;98745.23;107921;1275;95644;-68
2022/08/01 11:09:05;;;;;;;9.40;5.30;;;;;;;24.13;66.09;98740.94;107897;1276;111485;-67
2022/08/01 11:11:57;;;;;;;13.70;5.60;;;;;;;24.09;65.90;98742.14;107888;1276;96114;-68
2022/08/01 11:14:25;;;;;;;11.00;5.50;;;;;;;24.13;65.53;98745.53;107926;1274;107860;-70
2022/08/01 11:17:34;;;;;;;9.80;4.90;;;;;;;24.15;65.35;98734.71;107938;1274;95715;-69
2022/08/01 11:20:10;;;;;;;10.40;3.90;;;;;;;24.19;65.21;98734.16;107957;1274;96070;-69
2022/08/01 11:22:59;;;;;;;9.30;4.30;;;;;;;24.06;64.76;98729.23;107882;1275;111612;-68
2022/08/01 11:25:37;;;;;;;8.90;4.40;;;;;;;24.08;64.78;98732.83;107918;1274;96191;-66
2022/08/01 11:28:27;;;;;;;7.60;3.90;;;;;;;24.20;64.41;98729.70;107909;1274;107851;-64
2022/08/01 11:31:02;;;;;;;7.30;3.60;;;;;;;24.24;64.17;98731.88;107901;1274;95812;-65
2022/08/01 11:33:44;;;;;;;6.10;3.30;;;;;;;24.34;64.44;98726.09;107917;1274;95626;-64
2022/08/01 11:36:15;;;;;;;5.40;3.10;;;;;;;24.50;64.26;98726.88;107928;1274;111476;-67
2022/08/01 11:38:48;;;;;;;7.00;3.60;;;;;;;24.52;63.90;98726.13;107921;1274;95910;-65
2022/08/01 11:41:26;;;;;;;;;;;;;;;24.54;63.95;98727.88;107929;1274;107657;-65